sensor_id;sensor_type;location;lat;lon;timestamp;temperature;humidity
17599;DHT22;8918;52.092;5.232;2022-08-01T00:00:36;19.00;99.90
17599;DHT22;8918;52.092;5.232;2022-08-01T00:03:02;19.00;99.90
17599;DHT22;8918;52.092;5.232;2022-08-01T00:05:28;19.00;99.90
17599;DHT22;8918;52.092;5.232;2022-08-01T00:07:54;19.00;99.90
17599;DHT22;8918;52.092;5.232;2022-08-01T00:10:19;19.00;99.90
17599;DHT22;8918;52.092;5.232;2022-08-01T00:12:45;19.00;99.90
17599;DHT22;8918;52.092;5.232;2022-08-01T00:15:13;19.00;99.90
17599;DHT22;8918;52.092;5.232;2022-08-01T00:17:40;19.00;99.90
17599;DHT22;8918;52.092;5.232;2022-08-01T00:20:07;19.00;99.90
17599;DHT22;8918;52.092;5.232;2022-08-01T00:22:34;19.00;99.90
17599;DHT22;8918;52.092;5.232;2022-08-01T00:25:00;19.00;99.90
17599;DHT22;8918;52.092;5.232;2022-08-01T00:27:26;19.00;99.90
17599;DHT22;8918;52.092;5.232;2022-08-01T00:29:51;19.00;99.90
17599;DHT22;8918;52.092;5.232;2022-08-01T00:32:17;19.00;99.90
17599;DHT22;8918;52.092;5.232;2022-08-01T00:34:42;19.00;99.90
17599;DHT22;8918;52.092;5.232;2022-08-01T00:37:08;19.00;99.90
17599;DHT22;8918;52.092;5.232;2022-08-01T00:39:33;19.00;99.90
17599;DHT22;8918;52.092;5.232;2022-08-01T00:42:00;19.00;99.90
17599;DHT22;8918;52.092;5.232;2022-08-01T00:44:26;18.90;99.90
17599;DHT22;8918;52.092;5.232;2022-08-01T00:46:52;18.90;99.90
17599;DHT22;8918;52.092;5.232;2022-08-01T00:49:17;19.00;99.90
17599;DHT22;8918;52.092;5.232;2022-08-01T00:51:43;18.90;99.90
17599;DHT22;8918;52.092;5.232;2022-08-01T00:54:09;18.90;99.90
17599;DHT22;8918;52.092;5.232;2022-08-01T00:56:34;18.90;99.90
17599;DHT22;8918;52.092;5.232;2022-08-01T00:59:00;18.90;99.90
17599;DHT22;8918;52.092;5.232;2022-08-01T01:01:26;18.90;99.90
17599;DHT22;8918;52.092;5.232;2022-08-01T01:03:52;18.90;99.90
17599;DHT22;8918;52.092;5.232;2022-08-01T01:09:01;18.90;99.90
17599;DHT22;8918;52.092;5.232;2022-08-01T01:11:39;18.90;99.90
17599;DHT22;8918;52.092;5.232;2022-08-01T01:14:21;18.90;99.90
17599;DHT22;8918;52.092;5.232;2022-08-01T01:16:49;18.90;99.90
17599;DHT22;8918;52.092;5.232;2022-08-01T01:19:21;18.90;99.90
17599;DHT22;8918;52.092;5.232;2022-08-01T01:30:50;18.80;99.90
17599;DHT22;8918;52.092;5.232;2022-08-01T01:33:17;18.80;99.90
17599;DHT22;8918;52.092;5.232;2022-08-01T01:35:50;18.80;99.90
17599;DHT22;8918;52.092;5.232;2022-08-01T01:38:24;18.80;99.90
17599;DHT22;8918;52.092;5.232;2022-08-01T01:40:52;18.80;99.90
17599;DHT22;8918;52.092;5.232;2022-08-01T01:43:18;18.90;99.90
17599;DHT22;8918;52.092;5.232;2022-08-01T01:45:46;18.90;99.90
17599;DHT22;8918;52.092;5.232;2022-08-01T01:48:18;18.90;99.90
17599;DHT22;8918;52.092;5.232;2022-08-01T01:50:46;18.80;99.90
17599;DHT22;8918;52.092;5.232;2022-08-01T01:53:15;18.80;99.90
17599;DHT22;8918;52.092;5.232;2022-08-01T01:55:43;18.90;99.90
17599;DHT22;8918;52.092;5.232;2022-08-01T01:58:13;18.80;99.90
17599;DHT22;8918;52.092;5.232;2022-08-01T02:00:42;18.80;99.90
17599;DHT22;8918;52.092;5.232;2022-08-01T02:03:10;18.80;99.90
17599;DHT22;8918;52.092;5.232;2022-08-01T02:05:37;18.80;99.90
17599;DHT22;8918;52.092;5.232;2022-08-01T02:08:04;18.80;99.90
17599;DHT22;8918;52.092;5.232;2022-08-01T02:10:32;18.80;99.90
17599;DHT22;8918;52.092;5.232;2022-08-01T02:13:02;18.80;99.90
17599;DHT22;8918;52.092;5.232;2022-08-01T02:15:30;18.80;99.90
17599;DHT22;8918;52.092;5.232;2022-08-01T02:17:57;18.80;99.90
17599;DHT22;8918;52.092;5.232;2022-08-01T02:20:24;18.70;99.90
17599;DHT22;8918;52.092;5.232;2022-08-01T02:22:53;18.80;99.90
17599;DHT22;8918;52.092;5.232;2022-08-01T02:25:38;18.70;99.90
17599;DHT22;8918;52.092;5.232;2022-08-01T02:28:06;18.70;99.90
17599;DHT22;8918;52.092;5.232;2022-08-01T02:30:35;18.70;99.90
17599;DHT22;8918;52.092;5.232;2022-08-01T02:33:04;18.70;99.90
17599;DHT22;8918;52.092;5.232;2022-08-01T02:35:33;18.70;99.90
17599;DHT22;8918;52.092;5.232;2022-08-01T02:38:01;18.70;99.90
17599;DHT22;8918;52.092;5.232;2022-08-01T02:40:32;18.70;99.90
17599;DHT22;8918;52.092;5.232;2022-08-01T02:43:00;18.70;99.90
17599;DHT22;8918;52.092;5.232;2022-08-01T02:45:27;18.70;99.90
17599;DHT22;8918;52.092;5.232;2022-08-01T02:48:10;18.70;99.90
17599;DHT22;8918;52.092;5.232;2022-08-01T02:50:37;18.70;99.90
17599;DHT22;8918;52.092;5.232;2022-08-01T02:53:04;18.70;99.90
17599;DHT22;8918;52.092;5.232;2022-08-01T02:55:32;18.70;99.90
17599;DHT22;8918;52.092;5.232;2022-08-01T02:58:01;18.70;99.90
17599;DHT22;8918;52.092;5.232;2022-08-01T03:00:27;18.60;99.90
17599;DHT22;8918;52.092;5.232;2022-08-01T03:02:53;18.60;99.90
17599;DHT22;8918;52.092;5.232;2022-08-01T03:05:22;18.60;99.90
17599;DHT22;8918;52.092;5.232;2022-08-01T03:07:49;18.60;99.90
17599;DHT22;8918;52.092;5.232;2022-08-01T03:10:16;18.60;99.90
17599;DHT22;8918;52.092;5.232;2022-08-01T03:12:44;18.60;99.90
17599;DHT22;8918;52.092;5.232;2022-08-01T03:15:11;18.60;99.90
17599;DHT22;8918;52.092;5.232;2022-08-01T03:17:40;18.50;99.90
17599;DHT22;8918;52.092;5.232;2022-08-01T03:20:11;18.60;99.90
17599;DHT22;8918;52.092;5.232;2022-08-01T03:22:39;18.50;99.90
17599;DHT22;8918;52.092;5.232;2022-08-01T03:25:06;18.50;99.90
17599;DHT22;8918;52.092;5.232;2022-08-01T03:27:33;18.50;99.90
17599;DHT22;8918;52.092;5.232;2022-08-01T03:30:03;18.50;99.90
17599;DHT22;8918;52.092;5.232;2022-08-01T03:32:30;18.50;99.90
17599;DHT22;8918;52.092;5.232;2022-08-01T03:34:56;18.50;99.90
17599;DHT22;8918;52.092;5.232;2022-08-01T03:37:34;18.50;99.90
17599;DHT22;8918;52.092;5.232;2022-08-01T03:40:10;18.50;99.90
17599;DHT22;8918;52.092;5.232;2022-08-01T03:42:44;18.50;99.90
17599;DHT22;8918;52.092;5.232;2022-08-01T03:45:19;18.50;99.90
17599;DHT22;8918;52.092;5.232;2022-08-01T03:47:47;18.50;99.90
17599;DHT22;8918;52.092;5.232;2022-08-01T03:50:15;18.40;99.90
17599;DHT22;8918;52.092;5.232;2022-08-01T03:52:44;18.40;99.90
17599;DHT22;8918;52.092;5.232;2022-08-01T03:55:11;18.40;99.90
17599;DHT22;8918;52.092;5.232;2022-08-01T03:57:37;18.40;99.90
17599;DHT22;8918;52.092;5.232;2022-08-01T04:00:05;18.40;99.90
17599;DHT22;8918;52.092;5.232;2022-08-01T04:02:35;18.40;99.90
17599;DHT22;8918;52.092;5.232;2022-08-01T04:05:01;18.40;99.90
17599;DHT22;8918;52.092;5.232;2022-08-01T04:07:29;18.30;99.90
17599;DHT22;8918;52.092;5.232;2022-08-01T04:09:56;18.30;99.90
17599;DHT22;8918;52.092;5.232;2022-08-01T04:12:22;18.30;99.90
17599;DHT22;8918;52.092;5.232;2022-08-01T04:14:48;18.30;99.90
17599;DHT22;8918;52.092;5.232;2022-08-01T04:17:15;18.30;99.90
17599;DHT22;8918;52.092;5.232;2022-08-01T04:19:41;18.30;99.90
17599;DHT22;8918;52.092;5.232;2022-08-01T04:22:08;18.20;99.90
17599;DHT22;8918;52.092;5.232;2022-08-01T04:24:36;18.20;99.90
17599;DHT22;8918;52.092;5.232;2022-08-01T04:27:06;18.20;99.90
17599;DHT22;8918;52.092;5.232;2022-08-01T04:29:33;18.20;99.90
17599;DHT22;8918;52.092;5.232;2022-08-01T04:32:01;18.20;99.90
17599;DHT22;8918;52.092;5.232;2022-08-01T04:34:28;18.20;99.90
17599;DHT22;8918;52.092;5.232;2022-08-01T04:36:56;18.20;99.90
17599;DHT22;8918;52.092;5.232;2022-08-01T04:39:24;18.30;99.90
17599;DHT22;8918;52.092;5.232;2022-08-01T04:41:58;18.20;99.90
17599;DHT22;8918;52.092;5.232;2022-08-01T04:44:25;18.20;99.90
17599;DHT22;8918;52.092;5.232;2022-08-01T04:46:53;18.30;99.90
17599;DHT22;8918;52.092;5.232;2022-08-01T04:49:20;18.30;99.90
17599;DHT22;8918;52.092;5.232;2022-08-01T04:51:54;18.30;99.90
17599;DHT22;8918;52.092;5.232;2022-08-01T04:54:34;18.30;99.90
17599;DHT22;8918;52.092;5.232;2022-08-01T04:57:02;18.30;99.90
17599;DHT22;8918;52.092;5.232;2022-08-01T04:59:33;18.30;99.90
17599;DHT22;8918;52.092;5.232;2022-08-01T05:02:15;18.30;99.90
17599;DHT22;8918;52.092;5.232;2022-08-01T05:04:42;18.30;99.90
17599;DHT22;8918;52.092;5.232;2022-08-01T05:07:09;18.30;99.90
17599;DHT22;8918;52.092;5.232;2022-08-01T05:09:35;18.30;99.90
17599;DHT22;8918;52.092;5.232;2022-08-01T05:12:05;18.30;99.90
17599;DHT22;8918;52.092;5.232;2022-08-01T05:14:31;18.40;99.90
17599;DHT22;8918;52.092;5.232;2022-08-01T05:17:02;18.40;99.90
17599;DHT22;8918;52.092;5.232;2022-08-01T05:19:36;18.40;99.90
17599;DHT22;8918;52.092;5.232;2022-08-01T05:22:04;18.40;99.90
17599;DHT22;8918;52.092;5.232;2022-08-01T05:24:31;18.40;99.90
17599;DHT22;8918;52.092;5.232;2022-08-01T05:26:58;18.40;99.90
17599;DHT22;8918;52.092;5.232;2022-08-01T05:29:24;18.40;99.90
17599;DHT22;8918;52.092;5.232;2022-08-01T05:31:50;18.40;99.90
17599;DHT22;8918;52.092;5.232;2022-08-01T05:34:16;18.40;99.90
17599;DHT22;8918;52.092;5.232;2022-08-01T05:36:42;18.40;99.90
17599;DHT22;8918;52.092;5.232;2022-08-01T05:39:08;18.30;99.90
17599;DHT22;8918;52.092;5.232;2022-08-01T05:41:33;18.30;99.90
17599;DHT22;8918;52.092;5.232;2022-08-01T05:44:01;18.20;99.90
17599;DHT22;8918;52.092;5.232;2022-08-01T05:46:27;18.20;99.90
17599;DHT22;8918;52.092;5.232;2022-08-01T05:48:53;18.20;99.90
17599;DHT22;8918;52.092;5.232;2022-08-01T05:51:19;18.10;99.90
17599;DHT22;8918;52.092;5.232;2022-08-01T05:53:44;18.10;99.90
17599;DHT22;8918;52.092;5.232;2022-08-01T05:56:10;18.20;99.90
17599;DHT22;8918;52.092;5.232;2022-08-01T05:58:35;18.20;99.90
17599;DHT22;8918;52.092;5.232;2022-08-01T06:01:01;18.20;99.90
17599;DHT22;8918;52.092;5.232;2022-08-01T06:03:26;18.20;99.90
17599;DHT22;8918;52.092;5.232;2022-08-01T06:05:56;18.10;99.90
17599;DHT22;8918;52.092;5.232;2022-08-01T06:08:22;18.20;99.90
17599;DHT22;8918;52.092;5.232;2022-08-01T06:10:47;18.10;99.90
17599;DHT22;8918;52.092;5.232;2022-08-01T06:13:13;18.10;99.90
17599;DHT22;8918;52.092;5.232;2022-08-01T06:15:38;18.10;99.90
17599;DHT22;8918;52.092;5.232;2022-08-01T06:18:04;18.20;99.90
17599;DHT22;8918;52.092;5.232;2022-08-01T06:20:30;18.20;99.90
17599;DHT22;8918;52.092;5.232;2022-08-01T06:22:56;18.20;99.90
17599;DHT22;8918;52.092;5.232;2022-08-01T06:25:22;18.10;99.90
17599;DHT22;8918;52.092;5.232;2022-08-01T06:27:48;18.10;99.90
17599;DHT22;8918;52.092;5.232;2022-08-01T06:30:14;18.10;99.90
17599;DHT22;8918;52.092;5.232;2022-08-01T06:32:40;18.10;99.90
17599;DHT22;8918;52.092;5.232;2022-08-01T06:35:05;18.10;99.90
17599;DHT22;8918;52.092;5.232;2022-08-01T06:37:31;18.10;99.90
17599;DHT22;8918;52.092;5.232;2022-08-01T06:40:06;18.10;99.90
17599;DHT22;8918;52.092;5.232;2022-08-01T06:42:32;18.10;99.90
17599;DHT22;8918;52.092;5.232;2022-08-01T06:45:05;18.10;99.90
17599;DHT22;8918;52.092;5.232;2022-08-01T06:47:31;18.10;99.90
17599;DHT22;8918;52.092;5.232;2022-08-01T06:49:57;18.10;99.90
17599;DHT22;8918;52.092;5.232;2022-08-01T06:52:23;18.10;99.90
17599;DHT22;8918;52.092;5.232;2022-08-01T06:54:48;18.10;99.90
17599;DHT22;8918;52.092;5.232;2022-08-01T06:57:14;18.10;99.90
17599;DHT22;8918;52.092;5.232;2022-08-01T06:59:40;18.10;99.90
17599;DHT22;8918;52.092;5.232;2022-08-01T07:02:05;18.10;99.90
17599;DHT22;8918;52.092;5.232;2022-08-01T07:04:31;18.10;99.90
17599;DHT22;8918;52.092;5.232;2022-08-01T07:06:57;18.10;99.90
17599;DHT22;8918;52.092;5.232;2022-08-01T07:09:23;18.10;99.90
17599;DHT22;8918;52.092;5.232;2022-08-01T07:11:49;18.10;99.90
17599;DHT22;8918;52.092;5.232;2022-08-01T07:14:16;18.00;99.90
17599;DHT22;8918;52.092;5.232;2022-08-01T07:16:41;18.10;99.90
17599;DHT22;8918;52.092;5.232;2022-08-01T07:19:07;18.10;99.90
17599;DHT22;8918;52.092;5.232;2022-08-01T07:21:33;18.10;99.90
17599;DHT22;8918;52.092;5.232;2022-08-01T07:23:59;18.10;99.90
17599;DHT22;8918;52.092;5.232;2022-08-01T07:26:24;18.10;99.90
17599;DHT22;8918;52.092;5.232;2022-08-01T07:28:50;18.10;99.90
17599;DHT22;8918;52.092;5.232;2022-08-01T07:31:15;18.10;99.90
17599;DHT22;8918;52.092;5.232;2022-08-01T07:33:41;18.10;99.90
17599;DHT22;8918;52.092;5.232;2022-08-01T07:36:06;18.10;99.90
17599;DHT22;8918;52.092;5.232;2022-08-01T07:38:32;18.20;99.90
17599;DHT22;8918;52.092;5.232;2022-08-01T07:40:57;18.20;99.90
17599;DHT22;8918;52.092;5.232;2022-08-01T07:43:23;18.10;99.90
17599;DHT22;8918;52.092;5.232;2022-08-01T07:45:49;18.10;99.90
17599;DHT22;8918;52.092;5.232;2022-08-01T07:48:14;18.10;99.90
17599;DHT22;8918;52.092;5.232;2022-08-01T07:50:40;18.10;99.90
17599;DHT22;8918;52.092;5.232;2022-08-01T07:53:05;18.20;99.90
17599;DHT22;8918;52.092;5.232;2022-08-01T07:55:31;18.20;99.90
17599;DHT22;8918;52.092;5.232;2022-08-01T07:57:57;18.30;99.90
17599;DHT22;8918;52.092;5.232;2022-08-01T08:00:22;18.30;99.90
17599;DHT22;8918;52.092;5.232;2022-08-01T08:02:48;18.40;99.90
17599;DHT22;8918;52.092;5.232;2022-08-01T08:05:14;18.40;99.90
17599;DHT22;8918;52.092;5.232;2022-08-01T08:07:39;18.40;99.90
17599;DHT22;8918;52.092;5.232;2022-08-01T08:10:05;18.40;99.90
17599;DHT22;8918;52.092;5.232;2022-08-01T08:12:31;18.50;99.90
17599;DHT22;8918;52.092;5.232;2022-08-01T08:14:57;18.50;99.90
17599;DHT22;8918;52.092;5.232;2022-08-01T08:17:26;18.60;99.90
17599;DHT22;8918;52.092;5.232;2022-08-01T08:19:53;18.60;99.90
17599;DHT22;8918;52.092;5.232;2022-08-01T08:22:19;18.70;99.90
17599;DHT22;8918;52.092;5.232;2022-08-01T08:24:44;18.70;99.90
17599;DHT22;8918;52.092;5.232;2022-08-01T08:27:10;18.70;99.90
17599;DHT22;8918;52.092;5.232;2022-08-01T08:29:35;18.80;99.90
17599;DHT22;8918;52.092;5.232;2022-08-01T08:32:01;18.80;99.90
17599;DHT22;8918;52.092;5.232;2022-08-01T08:34:28;18.80;99.90
17599;DHT22;8918;52.092;5.232;2022-08-01T08:36:54;18.80;99.90
17599;DHT22;8918;52.092;5.232;2022-08-01T08:39:23;18.90;99.90
17599;DHT22;8918;52.092;5.232;2022-08-01T08:41:49;18.90;99.90
17599;DHT22;8918;52.092;5.232;2022-08-01T08:44:16;19.00;99.90
17599;DHT22;8918;52.092;5.232;2022-08-01T08:46:44;19.10;99.90
17599;DHT22;8918;52.092;5.232;2022-08-01T08:49:12;19.20;99.90
17599;DHT22;8918;52.092;5.232;2022-08-01T08:51:41;19.30;99.90
17599;DHT22;8918;52.092;5.232;2022-08-01T08:54:07;19.40;99.90
17599;DHT22;8918;52.092;5.232;2022-08-01T08:56:37;19.40;99.90
17599;DHT22;8918;52.092;5.232;2022-08-01T08:59:04;19.50;99.90
17599;DHT22;8918;52.092;5.232;2022-08-01T09:01:31;19.50;99.90
17599;DHT22;8918;52.092;5.232;2022-08-01T09:04:02;19.50;99.90
17599;DHT22;8918;52.092;5.232;2022-08-01T09:06:28;19.70;99.90
17599;DHT22;8918;52.092;5.232;2022-08-01T09:08:55;19.70;99.90
17599;DHT22;8918;52.092;5.232;2022-08-01T09:11:21;19.90;99.90
17599;DHT22;8918;52.092;5.232;2022-08-01T09:14:09;20.00;99.90
17599;DHT22;8918;52.092;5.232;2022-08-01T09:16:38;20.10;99.90
17599;DHT22;8918;52.092;5.232;2022-08-01T09:19:14;20.20;99.90
17599;DHT22;8918;52.092;5.232;2022-08-01T09:21:41;20.10;99.90
17599;DHT22;8918;52.092;5.232;2022-08-01T09:24:19;20.20;99.90
17599;DHT22;8918;52.092;5.232;2022-08-01T09:26:45;20.10;99.90
17599;DHT22;8918;52.092;5.232;2022-08-01T09:29:18;20.10;99.90
17599;DHT22;8918;52.092;5.232;2022-08-01T09:31:44;20.10;99.90
17599;DHT22;8918;52.092;5.232;2022-08-01T09:34:12;20.00;99.90
17599;DHT22;8918;52.092;5.232;2022-08-01T09:39:14;20.10;99.90
17599;DHT22;8918;52.092;5.232;2022-08-01T09:41:41;20.10;99.90
17599;DHT22;8918;52.092;5.232;2022-08-01T09:44:06;20.10;99.90
17599;DHT22;8918;52.092;5.232;2022-08-01T09:46:32;20.20;99.90
17599;DHT22;8918;52.092;5.232;2022-08-01T09:49:00;20.20;99.90
17599;DHT22;8918;52.092;5.232;2022-08-01T09:51:30;20.30;99.90
17599;DHT22;8918;52.092;5.232;2022-08-01T09:53:56;20.40;99.90
17599;DHT22;8918;52.092;5.232;2022-08-01T09:56:22;20.50;99.90
17599;DHT22;8918;52.092;5.232;2022-08-01T09:58:54;20.60;99.90
17599;DHT22;8918;52.092;5.232;2022-08-01T10:01:21;20.70;99.90
17599;DHT22;8918;52.092;5.232;2022-08-01T10:04:07;20.70;99.90
17599;DHT22;8918;52.092;5.232;2022-08-01T10:06:32;20.70;99.90
17599;DHT22;8918;52.092;5.232;2022-08-01T10:08:58;20.70;99.90
17599;DHT22;8918;52.092;5.232;2022-08-01T10:11:23;20.70;99.90
17599;DHT22;8918;52.092;5.232;2022-08-01T10:13:49;20.70;99.90
17599;DHT22;8918;52.092;5.232;2022-08-01T10:16:15;20.70;99.90
17599;DHT22;8918;52.092;5.232;2022-08-01T10:18:42;20.70;99.90
17599;DHT22;8918;52.092;5.232;2022-08-01T10:21:10;20.70;99.90
17599;DHT22;8918;52.092;5.232;2022-08-01T10:23:37;20.70;99.90
17599;DHT22;8918;52.092;5.232;2022-08-01T10:26:05;20.60;99.90
17599;DHT22;8918;52.092;5.232;2022-08-01T10:28:31;20.60;99.90
17599;DHT22;8918;52.092;5.232;2022-08-01T10:31:00;20.60;99.90
17599;DHT22;8918;52.092;5.232;2022-08-01T10:33:29;20.70;99.90
17599;DHT22;8918;52.092;5.232;2022-08-01T10:35:55;20.80;99.90
17599;DHT22;8918;52.092;5.232;2022-08-01T10:38:21;20.80;99.90
17599;DHT22;8918;52.092;5.232;2022-08-01T10:40:49;20.90;99.90
17599;DHT22;8918;52.092;5.232;2022-08-01T10:43:16;21.00;99.90
17599;DHT22;8918;52.092;5.232;2022-08-01T10:45:44;21.00;99.90
17599;DHT22;8918;52.092;5.232;2022-08-01T10:50:55;21.10;99.90
17599;DHT22;8918;52.092;5.232;2022-08-01T10:53:24;21.10;99.90
17599;DHT22;8918;52.092;5.232;2022-08-01T11:00:47;21.40;99.90
17599;DHT22;8918;52.092;5.232;2022-08-01T11:03:13;21.40;99.90
17599;DHT22;8918;52.092;5.232;2022-08-01T11:05:42;21.50;99.90
17599;DHT22;8918;52.092;5.232;2022-08-01T11:08:10;21.50;99.90
17599;DHT22;8918;52.092;5.232;2022-08-01T11:10:46;21.50;99.90
17599;DHT22;8918;52.092;5.232;2022-08-01T11:13:13;21.40;99.90
17599;DHT22;8918;52.092;5.232;2022-08-01T11:15:40;21.40;99.90
17599;DHT22;8918;52.092;5.232;2022-08-01T11:21:01;21.40;99.90
17599;DHT22;8918;52.092;5.232;2022-08-01T11:23:28;21.30;99.90
17599;DHT22;8918;52.092;5.232;2022-08-01T11:28:23;21.50;99.90
17599;DHT22;8918;52.092;5.232;2022-08-01T11:38:43;21.80;99.90
17599;DHT22;8918;52.092;5.232;2022-08-01T11:41:15;22.00;99.90
17599;DHT22;8918;52.092;5.232;2022-08-01T11:49:27;22.30;99.90
17599;DHT22;8918;52.092;5.232;2022-08-01T11:52:03;22.40;99.90
17599;DHT22;8918;52.092;5.232;2022-08-01T11:54:32;22.30;99.90
17599;DHT22;8918;52.092;5.232;2022-08-01T11:57:00;22.30;99.90
17599;DHT22;8918;52.092;5.232;2022-08-01T11:59:28;22.30;99.90
17599;DHT22;8918;52.092;5.232;2022-08-01T12:01:53;22.50;99.90
17599;DHT22;8918;52.092;5.232;2022-08-01T12:04:19;22.60;99.90
17599;DHT22;8918;52.092;5.232;2022-08-01T12:06:45;22.80;99.90
17599;DHT22;8918;52.092;5.232;2022-08-01T12:09:18;23.00;99.90
17599;DHT22;8918;52.092;5.232;2022-08-01T12:11:45;23.00;99.90
17599;DHT22;8918;52.092;5.232;2022-08-01T12:14:16;23.00;99.90
17599;DHT22;8918;52.092;5.232;2022-08-01T12:16:51;23.00;99.90
17599;DHT22;8918;52.092;5.232;2022-08-01T12:19:19;23.10;99.90
17599;DHT22;8918;52.092;5.232;2022-08-01T12:21:45;23.00;99.90
17599;DHT22;8918;52.092;5.232;2022-08-01T12:24:10;23.10;99.90
17599;DHT22;8918;52.092;5.232;2022-08-01T12:26:42;23.10;99.90
17599;DHT22;8918;52.092;5.232;2022-08-01T12:29:07;23.20;99.90
17599;DHT22;8918;52.092;5.232;2022-08-01T12:31:34;23.10;99.90
17599;DHT22;8918;52.092;5.232;2022-08-01T12:34:26;23.10;99.90
17599;DHT22;8918;52.092;5.232;2022-08-01T12:36:55;23.20;99.90
17599;DHT22;8918;52.092;5.232;2022-08-01T12:39:21;23.30;99.90
17599;DHT22;8918;52.092;5.232;2022-08-01T12:41:47;23.30;99.90
17599;DHT22;8918;52.092;5.232;2022-08-01T12:44:15;23.40;99.90
17599;DHT22;8918;52.092;5.232;2022-08-01T12:46:42;23.50;99.90
17599;DHT22;8918;52.092;5.232;2022-08-01T12:49:08;23.70;99.90
17599;DHT22;8918;52.092;5.232;2022-08-01T12:51:34;23.80;99.90
17599;DHT22;8918;52.092;5.232;2022-08-01T12:54:00;23.80;99.90
17599;DHT22;8918;52.092;5.232;2022-08-01T12:56:32;23.90;99.90
17599;DHT22;8918;52.092;5.232;2022-08-01T12:58:58;24.10;99.90
17599;DHT22;8918;52.092;5.232;2022-08-01T13:01:28;24.10;99.90
17599;DHT22;8918;52.092;5.232;2022-08-01T13:04:01;24.20;99.90
17599;DHT22;8918;52.092;5.232;2022-08-01T13:06:29;24.20;99.90
17599;DHT22;8918;52.092;5.232;2022-08-01T13:09:07;24.30;99.90
17599;DHT22;8918;52.092;5.232;2022-08-01T13:11:32;24.30;99.90
17599;DHT22;8918;52.092;5.232;2022-08-01T13:13:58;24.30;99.90
17599;DHT22;8918;52.092;5.232;2022-08-01T13:16:25;24.20;99.90
17599;DHT22;8918;52.092;5.232;2022-08-01T13:18:53;24.10;99.90
17599;DHT22;8918;52.092;5.232;2022-08-01T13:21:23;24.10;99.90
17599;DHT22;8918;52.092;5.232;2022-08-01T13:24:08;24.00;99.90
17599;DHT22;8918;52.092;5.232;2022-08-01T13:26:44;24.00;99.90
17599;DHT22;8918;52.092;5.232;2022-08-01T13:29:13;24.00;99.90
17599;DHT22;8918;52.092;5.232;2022-08-01T13:31:40;24.20;99.90
17599;DHT22;8918;52.092;5.232;2022-08-01T13:34:06;24.20;99.90
17599;DHT22;8918;52.092;5.232;2022-08-01T13:36:32;24.30;99.90
17599;DHT22;8918;52.092;5.232;2022-08-01T13:38:59;24.40;99.90
17599;DHT22;8918;52.092;5.232;2022-08-01T13:41:54;24.40;99.90
17599;DHT22;8918;52.092;5.232;2022-08-01T13:44:19;24.40;99.90
17599;DHT22;8918;52.092;5.232;2022-08-01T13:46:45;24.50;99.90
17599;DHT22;8918;52.092;5.232;2022-08-01T13:49:12;24.50;99.90
17599;DHT22;8918;52.092;5.232;2022-08-01T13:51:39;24.50;99.90
17599;DHT22;8918;52.092;5.232;2022-08-01T13:54:05;24.60;99.90
17599;DHT22;8918;52.092;5.232;2022-08-01T13:56:31;24.50;99.90
17599;DHT22;8918;52.092;5.232;2022-08-01T13:58:57;24.50;99.90
17599;DHT22;8918;52.092;5.232;2022-08-01T14:01:24;24.70;99.90
17599;DHT22;8918;52.092;5.232;2022-08-01T14:03:50;24.80;99.90
17599;DHT22;8918;52.092;5.232;2022-08-01T14:06:17;24.90;99.90
17599;DHT22;8918;52.092;5.232;2022-08-01T14:08:44;24.90;99.90
17599;DHT22;8918;52.092;5.232;2022-08-01T14:11:10;24.90;99.90
17599;DHT22;8918;52.092;5.232;2022-08-01T14:13:35;24.90;99.90
17599;DHT22;8918;52.092;5.232;2022-08-01T14:16:04;24.90;99.90
17599;DHT22;8918;52.092;5.232;2022-08-01T14:18:30;24.80;99.90
17599;DHT22;8918;52.092;5.232;2022-08-01T14:20:56;24.80;99.90
17599;DHT22;8918;52.092;5.232;2022-08-01T14:23:22;24.90;99.90
17599;DHT22;8918;52.092;5.232;2022-08-01T14:25:47;25.00;99.90
17599;DHT22;8918;52.092;5.232;2022-08-01T14:28:13;25.00;99.90
17599;DHT22;8918;52.092;5.232;2022-08-01T14:30:39;25.00;99.90
17599;DHT22;8918;52.092;5.232;2022-08-01T14:33:06;25.00;99.90
17599;DHT22;8918;52.092;5.232;2022-08-01T14:35:32;25.10;99.90
17599;DHT22;8918;52.092;5.232;2022-08-01T14:37:58;25.20;99.90
17599;DHT22;8918;52.092;5.232;2022-08-01T14:40:23;25.30;99.90
17599;DHT22;8918;52.092;5.232;2022-08-01T14:42:49;25.30;99.90
17599;DHT22;8918;52.092;5.232;2022-08-01T14:45:14;25.20;99.90
17599;DHT22;8918;52.092;5.232;2022-08-01T14:47:42;25.20;99.90
17599;DHT22;8918;52.092;5.232;2022-08-01T14:50:12;25.40;99.90
17599;DHT22;8918;52.092;5.232;2022-08-01T14:52:39;25.40;99.90
17599;DHT22;8918;52.092;5.232;2022-08-01T14:55:06;25.40;99.90
17599;DHT22;8918;52.092;5.232;2022-08-01T14:57:33;25.50;99.90
17599;DHT22;8918;52.092;5.232;2022-08-01T14:59:59;25.50;99.90
17599;DHT22;8918;52.092;5.232;2022-08-01T15:02:25;25.40;99.90
17599;DHT22;8918;52.092;5.232;2022-08-01T15:04:50;25.40;99.90
17599;DHT22;8918;52.092;5.232;2022-08-01T15:07:18;25.60;99.90
17599;DHT22;8918;52.092;5.232;2022-08-01T15:09:44;25.50;99.90
17599;DHT22;8918;52.092;5.232;2022-08-01T15:12:11;25.50;99.90
17599;DHT22;8918;52.092;5.232;2022-08-01T15:14:37;25.30;99.90
17599;DHT22;8918;52.092;5.232;2022-08-01T15:17:20;25.40;99.90
17599;DHT22;8918;52.092;5.232;2022-08-01T15:19:47;25.40;99.90
17599;DHT22;8918;52.092;5.232;2022-08-01T15:22:14;25.70;99.90
17599;DHT22;8918;52.092;5.232;2022-08-01T15:24:40;25.80;99.90
17599;DHT22;8918;52.092;5.232;2022-08-01T15:27:06;25.80;99.90
17599;DHT22;8918;52.092;5.232;2022-08-01T15:29:32;25.90;99.90
17599;DHT22;8918;52.092;5.232;2022-08-01T15:32:00;26.10;99.90
17599;DHT22;8918;52.092;5.232;2022-08-01T15:34:25;26.20;99.90
17599;DHT22;8918;52.092;5.232;2022-08-01T15:36:51;26.40;99.90
17599;DHT22;8918;52.092;5.232;2022-08-01T15:39:17;26.50;99.90
17599;DHT22;8918;52.092;5.232;2022-08-01T15:41:43;26.60;99.90
17599;DHT22;8918;52.092;5.232;2022-08-01T15:44:09;26.70;99.90
17599;DHT22;8918;52.092;5.232;2022-08-01T15:46:34;26.70;99.50
17599;DHT22;8918;52.092;5.232;2022-08-01T15:49:05;26.70;99.20
17599;DHT22;8918;52.092;5.232;2022-08-01T15:51:31;26.70;98.80
17599;DHT22;8918;52.092;5.232;2022-08-01T15:53:57;26.80;98.80
17599;DHT22;8918;52.092;5.232;2022-08-01T15:56:23;26.80;97.80
17599;DHT22;8918;52.092;5.232;2022-08-01T15:58:49;26.90;98.30
17599;DHT22;8918;52.092;5.232;2022-08-01T16:01:15;26.90;98.30
17599;DHT22;8918;52.092;5.232;2022-08-01T16:03:43;26.90;97.80
17599;DHT22;8918;52.092;5.232;2022-08-01T16:06:08;27.00;97.70
17599;DHT22;8918;52.092;5.232;2022-08-01T16:08:34;27.20;97.60
17599;DHT22;8918;52.092;5.232;2022-08-01T16:10:59;27.20;96.60
17599;DHT22;8918;52.092;5.232;2022-08-01T16:13:25;27.30;96.80
17599;DHT22;8918;52.092;5.232;2022-08-01T16:15:50;27.60;96.10
17599;DHT22;8918;52.092;5.232;2022-08-01T16:18:16;27.80;95.10
17599;DHT22;8918;52.092;5.232;2022-08-01T16:20:42;27.80;95.20
17599;DHT22;8918;52.092;5.232;2022-08-01T16:23:08;28.00;94.70
17599;DHT22;8918;52.092;5.232;2022-08-01T16:25:33;28.20;94.80
17599;DHT22;8918;52.092;5.232;2022-08-01T16:27:59;28.40;94.80